createdAt,value
2019-01-13T00:01:01.025Z,7.9
2019-01-13T00:02:02.598Z,7.9
2019-01-13T00:03:04.162Z,7.9
2019-01-13T00:04:05.715Z,7.9
2019-01-13T00:05:07.370Z,7.9
2019-01-13T00:06:08.891Z,7.9
2019-01-13T00:07:10.426Z,7.9
2019-01-13T00:08:11.953Z,7.8
2019-01-13T00:09:13.491Z,7.8
2019-01-13T00:10:15.015Z,7.2
2019-01-13T00:11:16.447Z,7.3
2019-01-13T00:12:17.976Z,7.4
2019-01-13T00:13:19.530Z,7.4
2019-01-13T00:14:20.744Z,7.5
2019-01-13T00:15:22.123Z,7.5
2019-01-13T00:16:23.507Z,7.5
2019-01-13T00:17:24.737Z,7.5
2019-01-13T00:18:26.135Z,7.6
2019-01-13T00:19:27.751Z,7.6
2019-01-13T00:20:29.293Z,7.6
2019-01-13T00:21:30.675Z,7.7
2019-01-13T00:22:32.224Z,7.7
2019-01-13T00:23:33.757Z,7.8
2019-01-13T00:24:35.312Z,7.8
2019-01-13T00:25:36.860Z,7.8
2019-01-13T00:26:38.254Z,7.7
2019-01-13T00:27:39.640Z,7.7
2019-01-13T00:28:41.177Z,7.7
2019-01-13T00:29:42.734Z,7.8
2019-01-13T00:30:43.941Z,7.8
2019-01-13T00:31:45.346Z,7.8
2019-01-13T00:32:46.903Z,7.8
2019-01-13T00:33:48.439Z,7.8
2019-01-13T00:34:49.665Z,7.8
2019-01-13T00:35:51.188Z,7.8
2019-01-13T00:36:52.607Z,7.8
2019-01-13T00:37:53.837Z,7.8
2019-01-13T00:38:55.065Z,7.7
2019-01-13T00:39:56.440Z,7.8
2019-01-13T00:40:57.995Z,7.8
2019-01-13T00:41:59.392Z,7.9
2019-01-13T00:43:00.789Z,7.9
2019-01-13T00:44:02.325Z,7.9
2019-01-13T00:45:03.861Z,7.9
2019-01-13T00:46:05.240Z,7.8
2019-01-13T00:47:06.766Z,7.8
2019-01-13T00:48:07.999Z,7.8
2019-01-13T00:49:09.541Z,7.8
2019-01-13T00:50:10.951Z,7.8
2019-01-13T00:51:12.164Z,7.9
2019-01-13T00:52:13.715Z,7.9
2019-01-13T00:53:14.953Z,7.9
2019-01-13T00:54:16.523Z,7.9
2019-01-13T00:55:18.071Z,7.9
2019-01-13T00:56:19.608Z,7.9
2019-01-13T00:57:20.972Z,7.8
2019-01-13T00:58:22.496Z,7.9
2019-01-13T00:59:23.881Z,7.8
2019-01-13T01:00:27.995Z,7.9
2019-01-13T01:01:29.568Z,7.9
2019-01-13T01:02:31.147Z,7.9
2019-01-13T01:03:32.707Z,7.9
2019-01-13T01:04:33.931Z,7.9
2019-01-13T01:05:35.122Z,7.9
2019-01-13T01:06:36.325Z,7.8
2019-01-13T01:07:37.707Z,7.7
2019-01-13T01:08:39.275Z,7.8
2019-01-13T01:09:40.823Z,7.8
2019-01-13T01:10:42.379Z,7.8
2019-01-13T01:11:43.758Z,7.8
2019-01-13T01:12:44.969Z,7.8
2019-01-13T01:13:46.574Z,7.8
2019-01-13T01:14:48.103Z,7.8
2019-01-13T01:15:49.645Z,7.8
2019-01-13T01:16:51.163Z,7.8
2019-01-13T01:17:52.644Z,7.8
2019-01-13T01:18:54.027Z,7.8
2019-01-13T01:19:55.585Z,7.8
2019-01-13T01:20:56.954Z,7.8
2019-01-13T01:21:58.361Z,7.8
2019-01-13T01:22:59.900Z,7.8
2019-01-13T01:24:01.296Z,7.8
2019-01-13T01:25:02.666Z,7.8
2019-01-13T01:26:04.204Z,7.8
2019-01-13T01:27:05.603Z,7.8
2019-01-13T01:28:06.866Z,7.7
2019-01-13T01:29:08.251Z,7.7
2019-01-13T01:30:09.797Z,7.7
2019-01-13T01:31:11.355Z,7.7
2019-01-13T01:32:12.885Z,7.7
2019-01-13T01:33:14.424Z,7.7
2019-01-13T01:34:15.814Z,7.7
2019-01-13T01:35:17.342Z,7.7
2019-01-13T01:36:18.867Z,7.7
2019-01-13T01:37:20.246Z,7.7
2019-01-13T01:38:21.767Z,7.7
2019-01-13T01:39:23.305Z,7.7
2019-01-13T01:40:24.535Z,7.7
2019-01-13T01:41:25.899Z,7.8
2019-01-13T01:42:27.435Z,7.8
2019-01-13T01:43:28.825Z,7.7
2019-01-13T01:44:30.049Z,7.7
2019-01-13T01:45:31.603Z,7.8
2019-01-13T01:46:32.817Z,7.8
2019-01-13T01:47:34.375Z,7.8
2019-01-13T01:48:35.908Z,7.8
2019-01-13T01:49:37.461Z,7.8
2019-01-13T01:50:39.011Z,7.8
2019-01-13T01:51:40.218Z,7.8
2019-01-13T01:52:41.603Z,7.8
2019-01-13T01:53:42.825Z,7.8
2019-01-13T01:54:44.203Z,7.8
2019-01-13T01:55:45.747Z,7.8
2019-01-13T01:56:47.276Z,7.8
2019-01-13T01:57:48.745Z,7.8
2019-01-13T01:58:50.286Z,7.8
2019-01-13T01:59:51.825Z,7.7
2019-01-13T02:00:53.350Z,7.7
2019-01-13T02:01:54.732Z,7.7
2019-01-13T02:02:56.173Z,7.7
2019-01-13T02:03:57.618Z,7.7
2019-01-13T02:04:59.284Z,7.7
2019-01-13T02:06:00.471Z,7.7
2019-01-13T02:07:01.946Z,7.6
2019-01-13T02:08:03.479Z,7.5
2019-01-13T02:09:05.016Z,7.4
2019-01-13T02:10:06.576Z,7.3
2019-01-13T02:11:08.104Z,7.2
2019-01-13T02:12:09.481Z,7.2
2019-01-13T02:13:10.861Z,7.2
2019-01-13T02:14:12.265Z,7.2
2019-01-13T02:15:13.787Z,7.2
2019-01-13T02:16:15.317Z,7.2
2019-01-13T02:17:16.708Z,7.2
2019-01-13T02:18:18.263Z,7.2
2019-01-13T02:19:19.806Z,7.2
2019-01-13T02:20:21.196Z,7.2
2019-01-13T02:21:22.733Z,7.1
2019-01-13T02:22:24.271Z,7.1
2019-01-13T02:23:25.643Z,7.1
2019-01-13T02:24:27.045Z,7.1
2019-01-13T02:25:28.582Z,7.1
2019-01-13T02:26:29.957Z,7.1
2019-01-13T02:27:31.500Z,7.1
2019-01-13T02:28:32.871Z,7.1
2019-01-13T02:29:34.258Z,7.1
2019-01-13T02:30:35.646Z,7.1
2019-01-13T02:31:37.170Z,7.1
2019-01-13T02:32:38.748Z,7.1
2019-01-13T02:33:40.311Z,7.1
2019-01-13T02:34:41.687Z,7.1
2019-01-13T02:35:42.908Z,7.1
2019-01-13T02:36:44.295Z,7.1
2019-01-13T02:37:45.822Z,7.1
2019-01-13T02:38:47.355Z,7.1
2019-01-13T02:39:48.889Z,7.1
2019-01-13T02:40:50.454Z,7.1
2019-01-13T02:41:51.852Z,7.1
2019-01-13T02:42:53.421Z,7.1
2019-01-13T02:43:54.986Z,7.1
2019-01-13T02:44:56.627Z,7.1
2019-01-13T02:45:58.015Z,7.1
2019-01-13T02:46:59.557Z,7.1
2019-01-13T02:48:01.099Z,7.1
2019-01-13T02:49:02.309Z,7.1
2019-01-13T02:50:03.718Z,7.2
2019-01-13T02:51:05.255Z,7.2
2019-01-13T02:52:06.776Z,7.2
2019-01-13T02:53:08.232Z,7.2
2019-01-13T02:54:09.591Z,7.2
2019-01-13T02:55:11.135Z,7.2
2019-01-13T02:56:12.509Z,7.2
2019-01-13T02:57:14.075Z,7.2
2019-01-13T02:58:15.634Z,7.2
2019-01-13T02:59:17.004Z,7.2
2019-01-13T03:00:18.603Z,7.2
2019-01-13T03:01:20.154Z,7.2
2019-01-13T03:02:21.711Z,7.2
2019-01-13T03:03:23.110Z,7.2
2019-01-13T03:04:24.331Z,7.2
2019-01-13T03:05:25.881Z,7.2
2019-01-13T03:06:27.296Z,7.2
2019-01-13T03:07:28.526Z,7.3
2019-01-13T03:08:29.925Z,7.4
2019-01-13T03:09:31.315Z,7.4
2019-01-13T03:10:32.888Z,7.5
2019-01-13T03:11:34.437Z,7.6
2019-01-13T03:12:35.821Z,7.6
2019-01-13T03:13:37.399Z,7.7
2019-01-13T03:14:38.658Z,7.7
2019-01-13T03:15:39.909Z,7.7
2019-01-13T03:16:41.464Z,7.8
2019-01-13T03:17:42.839Z,7.8
2019-01-13T03:18:44.381Z,7.8
2019-01-13T03:19:45.964Z,7.9
2019-01-13T03:20:47.561Z,7.9
2019-01-13T03:21:48.935Z,7.9
2019-01-13T03:22:50.182Z,7.8
2019-01-13T03:23:51.724Z,7.8
2019-01-13T03:24:53.267Z,7.8
2019-01-13T03:25:54.825Z,7.8
2019-01-13T03:26:56.216Z,7.8
2019-01-13T03:27:57.604Z,7.8
2019-01-13T03:28:59.228Z,7.8
2019-01-13T03:30:01.078Z,7.8
2019-01-13T03:31:13.932Z,7.8
2019-01-13T03:32:15.546Z,7.8
2019-01-13T03:33:17.156Z,7.8
2019-01-13T03:34:18.542Z,7.8
2019-01-13T03:35:20.079Z,7.8
2019-01-13T03:36:21.641Z,7.7
2019-01-13T03:37:23.199Z,7.7
2019-01-13T03:38:24.565Z,7.7
2019-01-13T03:39:26.113Z,7.8
2019-01-13T03:40:27.666Z,7.8
2019-01-13T03:41:29.231Z,7.8
2019-01-13T03:42:30.782Z,7.2
2019-01-13T03:43:32.165Z,7.3
2019-01-13T03:44:33.711Z,7.3
2019-01-13T03:45:35.089Z,7.3
2019-01-13T03:46:36.655Z,7.3
2019-01-13T03:47:38.053Z,7.3
2019-01-13T03:48:39.634Z,7.3
2019-01-13T03:49:41.194Z,7.3
2019-01-13T03:50:42.555Z,7.3
2019-01-13T03:51:43.942Z,7.4
2019-01-13T03:52:54.705Z,7.4
2019-01-13T03:53:56.076Z,7.4
2019-01-13T03:54:57.452Z,7.4
2019-01-13T03:55:58.991Z,7.4
2019-01-13T03:57:00.428Z,7.3
2019-01-13T03:58:01.810Z,7.3
2019-01-13T03:59:03.213Z,7.2
2019-01-13T04:00:04.778Z,7.2
2019-01-13T04:01:06.168Z,7.2
2019-01-13T04:02:07.723Z,7.2
2019-01-13T04:03:09.262Z,7.2
2019-01-13T04:04:10.652Z,7.2
2019-01-13T04:05:12.176Z,7.3
2019-01-13T04:06:13.547Z,7.3
2019-01-13T04:07:14.935Z,7.4
2019-01-13T04:08:16.456Z,7.4
2019-01-13T04:09:17.830Z,7.4
2019-01-13T04:10:19.371Z,7.4
2019-01-13T04:11:20.756Z,7.3
2019-01-13T04:12:22.128Z,7.3
2019-01-13T04:13:23.381Z,7.2
2019-01-13T04:14:24.755Z,7.2
2019-01-13T04:15:26.136Z,7.2
2019-01-13T04:16:27.521Z,7.2
2019-01-13T04:17:28.757Z,7.1
2019-01-13T04:18:30.294Z,7.2
2019-01-13T04:19:31.695Z,7.1
2019-01-13T04:20:33.238Z,7.2
2019-01-13T04:21:34.291Z,7.2
2019-01-13T04:22:35.818Z,7.1
2019-01-13T04:23:37.379Z,7.2
2019-01-13T04:24:38.586Z,7.2
2019-01-13T04:25:40.126Z,7.1
2019-01-13T04:26:41.357Z,7.2
2019-01-13T04:27:42.902Z,7.2
2019-01-13T04:28:44.630Z,7.2
2019-01-13T04:29:46.030Z,7.2
2019-01-13T04:30:47.405Z,7.2
2019-01-13T04:31:48.790Z,7.2
2019-01-13T04:32:50.194Z,7.2
2019-01-13T04:33:51.593Z,7.3
2019-01-13T04:34:53.126Z,7.3
2019-01-13T04:35:54.681Z,7.3
2019-01-13T04:36:56.045Z,7.4
2019-01-13T04:37:58.208Z,7.5
2019-01-13T04:38:59.418Z,7.5
2019-01-13T04:40:00.714Z,7.6
2019-01-13T04:41:02.278Z,7.7
2019-01-13T04:42:03.774Z,7.7
2019-01-13T04:43:05.176Z,7.8
2019-01-13T04:44:06.614Z,7.9
2019-01-13T04:45:08.048Z,7.9
2019-01-13T04:46:09.620Z,7.6
2019-01-13T04:47:11.148Z,7.8
2019-01-13T04:48:12.773Z,7.8
2019-01-13T04:49:14.324Z,7.9
2019-01-13T04:50:15.896Z,7.9
2019-01-13T04:51:17.433Z,7.9
2019-01-13T04:52:18.825Z,7.9
2019-01-13T04:53:20.386Z,7.9
2019-01-13T04:54:21.750Z,7.9
2019-01-13T04:55:23.148Z,7.9
2019-01-13T04:56:24.708Z,7.9
2019-01-13T04:57:25.931Z,7.9
2019-01-13T04:58:27.141Z,7.9
2019-01-13T04:59:28.496Z,7.9
2019-01-13T05:00:30.030Z,7.9
2019-01-13T05:01:37.979Z,7.9
2019-01-13T05:02:39.534Z,7.9
2019-01-13T05:03:40.756Z,7.9
2019-01-13T05:04:42.167Z,7.9
2019-01-13T05:05:43.684Z,7.9
2019-01-13T05:06:44.763Z,7.9
2019-01-13T05:07:46.107Z,7.9
2019-01-13T05:08:47.635Z,7.9
2019-01-13T05:09:49.164Z,7.9
2019-01-13T05:10:50.545Z,7.9
2019-01-13T05:11:51.947Z,7.9
2019-01-13T05:12:53.353Z,7.9
2019-01-13T05:13:54.903Z,7.9
2019-01-13T05:14:56.448Z,7.9
2019-01-13T05:15:57.984Z,7.9
2019-01-13T05:16:59.559Z,7.9
2019-01-13T05:18:00.935Z,7.9
2019-01-13T05:19:02.494Z,7.9
2019-01-13T05:20:03.909Z,7.9
2019-01-13T05:21:05.295Z,7.9
2019-01-13T05:22:06.651Z,7.8
2019-01-13T05:23:08.032Z,7.8
2019-01-13T05:24:09.448Z,7.8
2019-01-13T05:25:10.974Z,7.8
2019-01-13T05:26:12.194Z,7.8
2019-01-13T05:27:13.565Z,7.8
2019-01-13T05:28:15.155Z,7.8
2019-01-13T05:29:16.536Z,7.8
2019-01-13T05:30:17.969Z,7.8
2019-01-13T05:31:19.354Z,7.8
2019-01-13T05:32:20.867Z,7.8
2019-01-13T05:33:22.428Z,7.7
2019-01-13T05:34:23.947Z,7.7
2019-01-13T05:35:25.324Z,7.6
2019-01-13T05:36:26.843Z,7.6
2019-01-13T05:37:28.574Z,7.6
2019-01-13T05:38:30.096Z,7.6
2019-01-13T05:39:31.621Z,7.6
2019-01-13T05:40:33.157Z,7.6
2019-01-13T05:41:34.524Z,7.6
2019-01-13T05:42:36.054Z,7.5
2019-01-13T05:43:37.427Z,7.5
2019-01-13T05:44:38.791Z,7.5
2019-01-13T05:45:40.366Z,7.4
2019-01-13T05:46:41.756Z,7.4
2019-01-13T05:47:43.288Z,7.4
2019-01-13T05:48:44.641Z,7.4
2019-01-13T05:49:46.185Z,7.4
2019-01-13T05:50:47.706Z,7.5
2019-01-13T05:51:49.077Z,7.5
2019-01-13T05:52:50.464Z,7.6
2019-01-13T05:53:51.988Z,7.6
2019-01-13T05:54:53.354Z,7.6
2019-01-13T05:55:54.770Z,7.6
2019-01-13T05:56:56.295Z,7.6
2019-01-13T05:57:57.826Z,7.6
2019-01-13T05:58:59.344Z,7.5
2019-01-13T06:00:00.584Z,7.4
2019-01-13T06:01:02.124Z,7.3
2019-01-13T06:02:03.344Z,7.2
2019-01-13T06:03:04.877Z,7.2
2019-01-13T06:04:06.420Z,7.2
2019-01-13T06:05:07.784Z,7.2
2019-01-13T06:06:09.302Z,7.2
2019-01-13T06:07:10.828Z,7.1
2019-01-13T06:08:12.358Z,7.1
2019-01-13T06:09:14.456Z,7.1
2019-01-13T06:10:15.977Z,7.1
2019-01-13T06:11:17.554Z,7.1
2019-01-13T06:12:18.916Z,7.1
2019-01-13T06:13:20.456Z,7.1
2019-01-13T06:14:21.672Z,7.1
2019-01-13T06:15:23.040Z,7.2
2019-01-13T06:16:24.418Z,7.2
2019-01-13T06:17:25.796Z,7.2
2019-01-13T06:18:27.354Z,7.2
2019-01-13T06:19:28.585Z,7.2
2019-01-13T06:20:30.132Z,7.2
2019-01-13T06:21:31.660Z,7.2
2019-01-13T06:22:33.027Z,7.2
2019-01-13T06:23:34.387Z,7.3
2019-01-13T06:24:35.929Z,7.3
2019-01-13T06:25:37.474Z,7.4
2019-01-13T06:26:38.710Z,7.5
2019-01-13T06:27:40.084Z,7.6
2019-01-13T06:28:41.292Z,7.7
2019-01-13T06:29:42.814Z,7.7
2019-01-13T06:30:44.345Z,7.8
2019-01-13T06:31:45.882Z,7.9
2019-01-13T06:32:47.095Z,7.9
2019-01-13T06:33:48.654Z,7.9
2019-01-13T06:34:50.196Z,7.9
2019-01-13T06:35:51.805Z,7.3
2019-01-13T06:36:53.339Z,7.4
2019-01-13T06:37:54.848Z,7.4
2019-01-13T06:38:56.380Z,7.5
2019-01-13T06:39:58.054Z,7.5
2019-01-13T06:40:59.409Z,7.6
2019-01-13T06:42:00.935Z,7.7
2019-01-13T06:43:02.454Z,7.7
2019-01-13T06:44:03.973Z,7.8
2019-01-13T06:45:05.494Z,7.9
2019-01-13T06:46:07.032Z,7.9
2019-01-13T06:47:08.554Z,7.9
2019-01-13T06:48:10.083Z,7.9
2019-01-13T06:49:11.617Z,7.9
2019-01-13T06:50:13.005Z,7.9
2019-01-13T06:51:14.556Z,7.9
2019-01-13T06:52:16.072Z,7.9
2019-01-13T06:53:17.664Z,7.9
2019-01-13T06:54:19.171Z,7.9
2019-01-13T06:55:20.853Z,7.9
2019-01-13T06:56:22.397Z,7.9
2019-01-13T06:57:23.631Z,7.9
2019-01-13T06:58:24.993Z,7.9
2019-01-13T06:59:26.397Z,7.9
2019-01-13T07:00:27.796Z,7.8
2019-01-13T07:01:29.175Z,7.8
2019-01-13T07:02:30.721Z,7.8
2019-01-13T07:03:32.260Z,7.8
2019-01-13T07:04:33.785Z,7.9
2019-01-13T07:05:34.996Z,7.9
2019-01-13T07:06:36.221Z,7.9
2019-01-13T07:07:38.867Z,7.9
2019-01-13T07:08:40.283Z,7.9
2019-01-13T07:09:41.523Z,7.9
2019-01-13T07:10:43.079Z,7.8
2019-01-13T07:11:44.475Z,7.8
2019-01-13T07:12:45.917Z,7.8
2019-01-13T07:13:47.443Z,7.8
2019-01-13T07:14:48.981Z,7.8
2019-01-13T07:15:50.529Z,7.8
2019-01-13T07:16:52.065Z,7.8
2019-01-13T07:17:53.603Z,7.8
2019-01-13T07:18:54.824Z,7.8
2019-01-13T07:19:56.213Z,7.8
2019-01-13T07:20:57.755Z,7.8
2019-01-13T07:21:59.279Z,7.9
2019-01-13T07:23:00.794Z,7.9
2019-01-13T07:24:02.325Z,7.9
2019-01-13T07:25:03.711Z,7.9
2019-01-13T07:26:05.104Z,7.9
2019-01-13T07:27:06.485Z,7.9
2019-01-13T07:28:08.044Z,7.9
2019-01-13T07:29:09.414Z,7.9
2019-01-13T07:30:11.095Z,7.9
2019-01-13T07:31:12.637Z,7.9
2019-01-13T07:32:14.176Z,7.9
2019-01-13T07:33:15.565Z,7.8
2019-01-13T07:34:16.947Z,7.8
2019-01-13T07:35:18.343Z,7.8
2019-01-13T07:36:19.905Z,7.8
2019-01-13T07:37:21.434Z,7.8
2019-01-13T07:38:24.399Z,7.8
2019-01-13T07:39:26.045Z,7.8
2019-01-13T07:40:27.595Z,7.7
2019-01-13T07:41:28.653Z,7.7
2019-01-13T07:42:30.035Z,7.8
2019-01-13T07:43:31.573Z,7.8
2019-01-13T07:44:32.862Z,7.8
2019-01-13T07:45:34.447Z,7.8
2019-01-13T07:46:35.992Z,7.8
2019-01-13T07:47:37.205Z,7.8
2019-01-13T07:48:38.431Z,7.8
2019-01-13T07:49:40.088Z,7.7
2019-01-13T07:50:41.475Z,7.6
2019-01-13T07:51:42.993Z,7.5
2019-01-13T07:52:44.569Z,7.4
2019-01-13T07:53:45.956Z,7.3
2019-01-13T07:54:47.341Z,7.2
2019-01-13T07:55:48.885Z,7.2
2019-01-13T07:56:50.433Z,7.2
2019-01-13T07:57:51.846Z,7.2
2019-01-13T07:58:53.370Z,7.2
2019-01-13T07:59:54.595Z,7.2
2019-01-13T08:00:56.126Z,7.1
2019-01-13T08:01:57.495Z,7.2
2019-01-13T08:02:59.033Z,7.2
2019-01-13T08:04:00.437Z,7.1
2019-01-13T08:05:02.005Z,7.2
2019-01-13T08:06:03.545Z,7.2
2019-01-13T08:07:05.117Z,7.2
2019-01-13T08:08:06.655Z,7.2
2019-01-13T08:09:08.186Z,7.2
2019-01-13T08:10:09.751Z,7.2
2019-01-13T08:11:11.325Z,7.2
2019-01-13T08:12:12.859Z,7.2
2019-01-13T08:13:14.247Z,7.2
2019-01-13T08:14:15.793Z,7.2
2019-01-13T08:15:17.344Z,7.2
2019-01-13T08:16:19.075Z,7.2
2019-01-13T08:17:20.449Z,7.2
2019-01-13T08:18:21.837Z,7.2
2019-01-13T08:19:23.229Z,7.3
2019-01-13T08:20:24.769Z,7.3
2019-01-13T08:21:26.374Z,7.3
2019-01-13T08:22:27.905Z,7.4
2019-01-13T08:23:29.465Z,7.4
2019-01-13T08:24:31.035Z,7.4
2019-01-13T08:25:32.355Z,7.4
2019-01-13T08:26:33.585Z,7.4
2019-01-13T08:27:35.129Z,7.5
2019-01-13T08:28:36.683Z,7.5
2019-01-13T08:29:38.087Z,7.5
2019-01-13T08:30:39.624Z,7.6
2019-01-13T08:31:41.190Z,7.6
2019-01-13T08:32:42.724Z,7.6
2019-01-13T08:33:44.274Z,7.6
2019-01-13T08:34:45.804Z,7.6
2019-01-13T08:35:47.206Z,7.6
2019-01-13T08:36:48.754Z,7.7
2019-01-13T08:37:50.144Z,7.7
2019-01-13T08:38:51.527Z,7.7
2019-01-13T08:39:52.923Z,7.7
2019-01-13T08:40:54.467Z,7.7
2019-01-13T08:41:56.012Z,7.7
2019-01-13T08:42:57.567Z,7.6
2019-01-13T08:43:59.128Z,7.6
2019-01-13T08:45:00.529Z,7.6
2019-01-13T08:46:01.914Z,7.6
2019-01-13T08:47:03.318Z,7.7
2019-01-13T08:48:04.865Z,7.7
2019-01-13T08:49:06.419Z,7.7
2019-01-13T08:50:07.806Z,7.7
2019-01-13T08:51:09.185Z,7.7
2019-01-13T08:52:10.588Z,7.7
2019-01-13T08:53:12.211Z,7.7
2019-01-13T08:54:13.795Z,7.6
2019-01-13T08:55:15.028Z,7.7
2019-01-13T08:56:16.417Z,7.7
2019-01-13T08:57:17.803Z,7.7
2019-01-13T08:58:19.030Z,7.7
2019-01-13T08:59:20.591Z,7.8
2019-01-13T09:00:22.174Z,7.7
2019-01-13T09:01:23.570Z,7.8
2019-01-13T09:02:32.014Z,7.8
2019-01-13T09:03:33.651Z,7.8
2019-01-13T09:04:35.228Z,7.8
2019-01-13T09:05:36.806Z,7.8
2019-01-13T09:06:38.394Z,7.8
2019-01-13T09:07:39.953Z,7.8
2019-01-13T09:08:41.482Z,7.8
2019-01-13T09:09:43.053Z,7.8
2019-01-13T09:10:44.609Z,7.7
2019-01-13T09:11:46.150Z,7.8
2019-01-13T09:12:48.910Z,7.8
2019-01-13T09:13:50.646Z,7.8
2019-01-13T09:14:52.340Z,7.8
2019-01-13T09:15:53.572Z,7.9
2019-01-13T09:16:54.795Z,7.9
2019-01-13T09:17:56.248Z,7.9
2019-01-13T09:18:57.804Z,7.9
2019-01-13T09:19:59.410Z,7.8
2019-01-13T09:21:00.938Z,7.8
2019-01-13T09:22:02.325Z,7.8
2019-01-13T09:23:03.907Z,7.8
2019-01-13T09:24:05.124Z,7.8
2019-01-13T09:25:06.686Z,7.9
2019-01-13T09:26:08.104Z,7.9
2019-01-13T09:27:09.666Z,7.9
2019-01-13T09:28:11.353Z,7.9
2019-01-13T09:29:12.934Z,7.9
2019-01-13T09:30:14.530Z,7.9
2019-01-13T09:31:16.059Z,7.8
2019-01-13T09:32:17.630Z,7.8
2019-01-13T09:33:19.203Z,7.7
2019-01-13T09:34:20.805Z,7.5
2019-01-13T09:35:22.339Z,7.4
2019-01-13T09:36:23.730Z,7.3
2019-01-13T09:37:25.266Z,7.2
2019-01-13T09:38:26.843Z,7.1
2019-01-13T09:39:28.227Z,7.1
2019-01-13T09:40:29.788Z,7.1
2019-01-13T09:41:31.158Z,7.1
2019-01-13T09:42:32.708Z,7.1
2019-01-13T09:43:34.086Z,7.2
2019-01-13T09:44:35.652Z,7.1
2019-01-13T09:45:37.193Z,7.1
2019-01-13T09:46:38.606Z,7.2
2019-01-13T09:47:40.179Z,7.2
2019-01-13T09:48:41.736Z,7.2
2019-01-13T09:49:50.540Z,7.2
2019-01-13T09:50:52.075Z,7.2
2019-01-13T09:51:53.616Z,7.2
2019-01-13T09:52:55.079Z,7.2
2019-01-13T09:53:56.615Z,7.2
2019-01-13T09:54:57.515Z,7.2
2019-01-13T09:55:58.920Z,7.3
2019-01-13T09:57:00.482Z,7.3
2019-01-13T09:58:01.863Z,7.4
2019-01-13T09:59:03.255Z,7.4
2019-01-13T10:00:05.214Z,7.5
2019-01-13T10:01:06.736Z,7.6
2019-01-13T10:02:08.291Z,7.6
2019-01-13T10:03:09.684Z,7.7
2019-01-13T10:04:11.060Z,7.7
2019-01-13T10:05:12.469Z,7.8
2019-01-13T10:06:13.851Z,7.8
2019-01-13T10:07:15.404Z,7.8
2019-01-13T10:08:16.805Z,7.9
2019-01-13T10:09:18.396Z,7.9
2019-01-13T10:10:19.946Z,7.9
2019-01-13T10:11:21.475Z,7.9
2019-01-13T10:12:23.034Z,7.9
2019-01-13T10:13:24.584Z,7.9
2019-01-13T10:14:26.060Z,7.9
2019-01-13T10:15:27.487Z,7.9
2019-01-13T10:16:29.075Z,7.9
2019-01-13T10:17:30.298Z,7.9
2019-01-13T10:18:31.837Z,7.9
2019-01-13T10:19:33.220Z,7.9
2019-01-13T10:20:36.221Z,7.9
2019-01-13T10:21:37.965Z,7.9
2019-01-13T10:22:39.367Z,7.9
2019-01-13T10:23:40.917Z,7.3
2019-01-13T10:24:42.465Z,7.4
2019-01-13T10:25:43.878Z,7.5
2019-01-13T10:26:45.418Z,7.6
2019-01-13T10:27:46.966Z,7.6
2019-01-13T10:28:48.381Z,7.7
2019-01-13T10:29:49.961Z,7.8
2019-01-13T10:30:51.193Z,7.8
2019-01-13T10:31:52.609Z,7.9
2019-01-13T10:32:56.542Z,7.2
2019-01-13T10:33:57.964Z,7.3
2019-01-13T10:34:59.485Z,7.4
2019-01-13T10:36:01.055Z,7.4
2019-01-13T10:37:02.622Z,7.5
2019-01-13T10:38:04.164Z,7.5
2019-01-13T10:39:05.710Z,7.6
2019-01-13T10:40:06.970Z,7.7
2019-01-13T10:41:08.433Z,7.7
2019-01-13T10:42:09.696Z,7.7
2019-01-13T10:43:11.264Z,7.8
2019-01-13T10:44:12.796Z,7.8
2019-01-13T10:45:14.186Z,7.8
2019-01-13T10:46:15.913Z,7.8
2019-01-13T10:47:17.470Z,7.8
2019-01-13T10:48:19.039Z,7.7
2019-01-13T10:49:20.589Z,7.7
2019-01-13T10:50:22.081Z,7.7
2019-01-13T10:51:23.694Z,7.7
2019-01-13T10:52:25.083Z,7.7
2019-01-13T10:53:26.475Z,7.7
2019-01-13T10:54:27.859Z,7.7
2019-01-13T10:55:29.249Z,7.7
2019-01-13T10:56:30.796Z,7.7
2019-01-13T10:57:32.021Z,7.8
2019-01-13T10:58:33.406Z,7.8
2019-01-13T10:59:34.974Z,7.8
2019-01-13T11:00:36.523Z,7.9
2019-01-13T11:01:37.914Z,7.9
2019-01-13T11:02:39.444Z,7.9
2019-01-13T11:03:40.693Z,7.8
2019-01-13T11:04:56.934Z,7.8
2019-01-13T11:05:58.305Z,7.7
2019-01-13T11:06:59.706Z,7.7
2019-01-13T11:08:01.262Z,7.6
2019-01-13T11:09:02.824Z,7.6
2019-01-13T11:10:04.379Z,7.5
2019-01-13T11:11:05.778Z,7.4
2019-01-13T11:12:07.340Z,7.2
2019-01-13T11:13:08.879Z,7.2
2019-01-13T11:14:10.455Z,7.2
2019-01-13T11:15:11.930Z,7.2
2019-01-13T11:16:13.558Z,7.1
2019-01-13T11:17:14.808Z,7.1
2019-01-13T11:18:16.372Z,7.1
2019-01-13T11:19:17.924Z,7.1
2019-01-13T11:20:19.179Z,7.2
2019-01-13T11:21:20.571Z,7.2
2019-01-13T11:22:22.138Z,7.1
2019-01-13T11:23:23.705Z,7.2
2019-01-13T11:24:25.270Z,7.2
2019-01-13T11:25:26.854Z,7.2
2019-01-13T11:26:28.406Z,7.2
2019-01-13T11:27:29.959Z,7.2
2019-01-13T11:28:31.512Z,7.2
2019-01-13T11:29:34.207Z,7.2
2019-01-13T11:30:35.617Z,7.3
2019-01-13T11:31:37.006Z,7.3
2019-01-13T11:32:38.586Z,7.4
2019-01-13T11:33:39.833Z,7.5
2019-01-13T11:34:41.382Z,7.6
2019-01-13T11:35:42.776Z,7.6
2019-01-13T11:36:44.177Z,7.7
2019-01-13T11:37:45.418Z,7.8
2019-01-13T11:38:46.971Z,7.8
2019-01-13T11:39:48.558Z,7.9
2019-01-13T11:40:50.146Z,7.9
2019-01-13T11:41:51.693Z,7.9
2019-01-13T11:42:53.245Z,7.9
2019-01-13T11:43:54.659Z,7.9
2019-01-13T11:44:56.054Z,7.9
2019-01-13T11:45:57.447Z,7.9
2019-01-13T11:46:58.853Z,7.9
2019-01-13T11:48:00.414Z,7.9
2019-01-13T11:49:01.949Z,7.9
2019-01-13T11:51:13.130Z,7.9
2019-01-13T11:52:14.526Z,7.9
2019-01-13T11:53:16.063Z,7.9
2019-01-13T11:54:17.456Z,7.9
2019-01-13T11:55:19.008Z,7.8
2019-01-13T11:56:20.558Z,7.8
2019-01-13T11:57:21.957Z,7.8
2019-01-13T11:58:23.182Z,7.2
2019-01-13T11:59:24.741Z,7.3
2019-01-13T12:00:26.296Z,7.3
2019-01-13T12:01:27.713Z,7.3
2019-01-13T12:02:34.225Z,7.3
2019-01-13T12:03:35.483Z,7.4
2019-01-13T12:04:37.033Z,7.4
2019-01-13T12:05:38.468Z,7.4
2019-01-13T12:06:39.848Z,7.4
2019-01-13T12:07:41.403Z,7.4
2019-01-13T12:08:42.836Z,7.4
2019-01-13T12:09:44.403Z,7.4
2019-01-13T12:10:46.133Z,7.4
2019-01-13T12:11:47.529Z,7.4
2019-01-13T12:12:49.063Z,7.4
2019-01-13T12:13:50.683Z,7.4
2019-01-13T12:14:52.093Z,7.4
2019-01-13T12:15:53.673Z,7.4
2019-01-13T12:16:55.071Z,7.4
2019-01-13T12:17:56.634Z,7.4
2019-01-13T12:18:58.075Z,7.4
2019-01-13T12:20:00.025Z,7.4
2019-01-13T12:21:01.265Z,7.4
2019-01-13T12:22:02.518Z,7.4
2019-01-13T12:23:03.924Z,7.4
2019-01-13T12:24:05.478Z,7.4
2019-01-13T12:25:06.882Z,7.5
2019-01-13T12:26:08.460Z,7.4
2019-01-13T12:27:10.015Z,7.4
2019-01-13T12:28:11.304Z,7.4
2019-01-13T12:29:12.717Z,7.4
2019-01-13T12:30:13.942Z,7.4
2019-01-13T12:31:15.340Z,7.4
2019-01-13T12:32:16.578Z,7.4
2019-01-13T12:33:26.157Z,7.4
2019-01-13T12:34:27.393Z,7.4
2019-01-13T12:35:28.958Z,7.4
2019-01-13T12:36:30.532Z,7.5
2019-01-13T12:37:31.789Z,7.5
2019-01-13T12:38:33.241Z,7.6
2019-01-13T12:39:34.647Z,7.6
2019-01-13T12:40:36.059Z,7.5
2019-01-13T12:41:37.440Z,7.5
2019-01-13T12:42:38.811Z,7.4
2019-01-13T12:43:40.445Z,7.3
2019-01-13T12:44:42.186Z,7.2
2019-01-13T12:45:43.622Z,7.2
2019-01-13T12:46:45.073Z,7.2
2019-01-13T12:47:46.632Z,7.2
2019-01-13T12:48:47.985Z,7.2
2019-01-13T12:49:49.536Z,7.2
2019-01-13T12:50:50.927Z,7.2
2019-01-13T12:51:52.170Z,7.2
2019-01-13T12:52:53.768Z,7.2
2019-01-13T12:53:55.165Z,7.2
2019-01-13T12:54:56.723Z,7.1
2019-01-13T12:55:58.141Z,7.1
2019-01-13T12:56:59.578Z,7.2
2019-01-13T12:58:00.980Z,7.2
2019-01-13T12:59:02.602Z,7.2
2019-01-13T13:00:04.231Z,7.2
2019-01-13T13:01:05.776Z,7.2
2019-01-13T13:02:07.156Z,7.3
2019-01-13T13:03:08.744Z,7.4
2019-01-13T13:04:10.177Z,7.7
2019-01-13T13:05:11.737Z,7.9
2019-01-13T13:06:13.295Z,7.9
2019-01-13T13:07:14.566Z,7.9
2019-01-13T13:08:16.169Z,7.6
2019-01-13T13:09:17.417Z,7.8
2019-01-13T13:10:19.073Z,7.9
2019-01-13T13:11:20.632Z,7.9
2019-01-13T13:12:22.220Z,7.9
2019-01-13T13:13:23.797Z,7.9
2019-01-13T13:14:25.344Z,7.2
2019-01-13T13:15:26.914Z,7.3
2019-01-13T13:16:28.497Z,7.4
2019-01-13T13:17:30.075Z,7.4
2019-01-13T13:18:31.505Z,7.5
2019-01-13T13:19:33.062Z,7.5
2019-01-13T13:20:34.637Z,7.5
2019-01-13T13:21:36.261Z,7.4
2019-01-13T13:22:37.505Z,7.4
2019-01-13T13:23:39.090Z,7.4
2019-01-13T13:24:40.667Z,7.4
2019-01-13T13:25:41.760Z,7.5
2019-01-13T13:26:43.157Z,7.5
2019-01-13T13:27:44.798Z,7.5
2019-01-13T13:28:46.440Z,7.5
2019-01-13T13:29:47.848Z,7.5
2019-01-13T13:30:49.432Z,7.5
2019-01-13T13:31:50.845Z,7.6
2019-01-13T13:32:52.415Z,7.6
2019-01-13T13:33:53.798Z,7.6
2019-01-13T13:34:57.070Z,7.6
2019-01-13T13:35:58.622Z,7.7
2019-01-13T13:37:00.013Z,7.7
2019-01-13T13:38:01.416Z,7.7
2019-01-13T13:39:02.975Z,7.7
2019-01-13T13:40:04.870Z,7.7
2019-01-13T13:41:06.512Z,7.7
2019-01-13T13:42:08.003Z,7.7
2019-01-13T13:43:09.591Z,7.7
2019-01-13T13:44:11.003Z,7.7
2019-01-13T13:45:12.413Z,7.7
2019-01-13T13:46:14.011Z,7.7
2019-01-13T13:47:15.459Z,7.6
2019-01-13T13:48:16.797Z,7.7
2019-01-13T13:49:18.404Z,7.7
2019-01-13T13:50:20.012Z,7.6
2019-01-13T13:51:21.608Z,7.7
2019-01-13T13:52:23.394Z,7.7
2019-01-13T13:53:24.870Z,7.7
2019-01-13T13:54:26.458Z,7.8
2019-01-13T13:55:27.718Z,7.8
2019-01-13T13:56:29.249Z,7.8
2019-01-13T13:57:30.496Z,7.8
2019-01-13T13:58:32.097Z,7.8
2019-01-13T13:59:33.528Z,7.8
2019-01-13T14:00:35.149Z,7.8
2019-01-13T14:01:36.568Z,7.8
2019-01-13T14:02:37.970Z,7.8
2019-01-13T14:03:46.787Z,7.8
2019-01-13T14:04:48.425Z,7.8
2019-01-13T14:05:50.052Z,7.8
2019-01-13T14:06:51.576Z,7.9
2019-01-13T14:07:53.021Z,7.9
2019-01-13T14:08:54.606Z,7.9
2019-01-13T14:09:56.257Z,7.9